sensor_id;sensor_type;location;lat;lon;timestamp;P1;durP1;ratioP1;P2;durP2;ratioP2
76606;SDS011;65498;50.916;4.698;2023-02-03T00:02:25;12.28;;;4.12;;
76606;SDS011;65498;50.916;4.698;2023-02-03T00:04:53;7.90;;;3.25;;
76606;SDS011;65498;50.916;4.698;2023-02-03T00:07:20;9.33;;;3.25;;
76606;SDS011;65498;50.916;4.698;2023-02-03T00:09:48;9.18;;;3.72;;
76606;SDS011;65498;50.916;4.698;2023-02-03T00:12:16;10.78;;;3.17;;
76606;SDS011;65498;50.916;4.698;2023-02-03T00:14:43;8.80;;;3.45;;
76606;SDS011;65498;50.916;4.698;2023-02-03T00:17:11;8.00;;;3.15;;
76606;SDS011;65498;50.916;4.698;2023-02-03T00:19:39;8.95;;;3.20;;
76606;SDS011;65498;50.916;4.698;2023-02-03T00:22:07;9.30;;;3.30;;
76606;SDS011;65498;50.916;4.698;2023-02-03T00:27:21;8.20;;;2.92;;
76606;SDS011;65498;50.916;4.698;2023-02-03T00:29:49;10.45;;;3.45;;
76606;SDS011;65498;50.916;4.698;2023-02-03T00:32:17;7.97;;;3.20;;
76606;SDS011;65498;50.916;4.698;2023-02-03T00:34:44;10.18;;;2.95;;
76606;SDS011;65498;50.916;4.698;2023-02-03T00:37:12;8.35;;;2.90;;
76606;SDS011;65498;50.916;4.698;2023-02-03T00:39:40;7.58;;;2.65;;
76606;SDS011;65498;50.916;4.698;2023-02-03T00:42:07;7.28;;;2.65;;
76606;SDS011;65498;50.916;4.698;2023-02-03T00:44:35;7.90;;;2.42;;
76606;SDS011;65498;50.916;4.698;2023-02-03T00:47:02;7.35;;;2.55;;
76606;SDS011;65498;50.916;4.698;2023-02-03T00:49:30;7.58;;;2.40;;
76606;SDS011;65498;50.916;4.698;2023-02-03T00:51:58;6.72;;;2.17;;
76606;SDS011;65498;50.916;4.698;2023-02-03T00:54:25;10.00;;;2.72;;
76606;SDS011;65498;50.916;4.698;2023-02-03T00:56:53;7.40;;;2.40;;
76606;SDS011;65498;50.916;4.698;2023-02-03T00:59:20;6.75;;;2.50;;
76606;SDS011;65498;50.916;4.698;2023-02-03T01:01:48;8.95;;;3.17;;
76606;SDS011;65498;50.916;4.698;2023-02-03T01:04:15;8.38;;;2.80;;
76606;SDS011;65498;50.916;4.698;2023-02-03T01:06:43;8.25;;;3.30;;
76606;SDS011;65498;50.916;4.698;2023-02-03T01:09:11;11.78;;;2.87;;
76606;SDS011;65498;50.916;4.698;2023-02-03T01:11:38;8.95;;;2.95;;
76606;SDS011;65498;50.916;4.698;2023-02-03T01:14:06;14.43;;;4.12;;
76606;SDS011;65498;50.916;4.698;2023-02-03T01:16:33;12.25;;;2.98;;
76606;SDS011;65498;50.916;4.698;2023-02-03T01:19:03;11.73;;;2.87;;
76606;SDS011;65498;50.916;4.698;2023-02-03T01:21:31;10.58;;;3.75;;
76606;SDS011;65498;50.916;4.698;2023-02-03T01:24:00;15.85;;;3.37;;
76606;SDS011;65498;50.916;4.698;2023-02-03T01:26:28;12.18;;;3.92;;
76606;SDS011;65498;50.916;4.698;2023-02-03T01:28:56;10.78;;;3.50;;
76606;SDS011;65498;50.916;4.698;2023-02-03T01:31:27;10.98;;;3.40;;
76606;SDS011;65498;50.916;4.698;2023-02-03T01:33:56;11.70;;;2.83;;
76606;SDS011;65498;50.916;4.698;2023-02-03T01:36:25;10.88;;;3.27;;
76606;SDS011;65498;50.916;4.698;2023-02-03T01:38:54;8.38;;;2.50;;
76606;SDS011;65498;50.916;4.698;2023-02-03T01:41:24;13.85;;;3.70;;
76606;SDS011;65498;50.916;4.698;2023-02-03T01:43:54;10.50;;;2.70;;
76606;SDS011;65498;50.916;4.698;2023-02-03T01:46:27;8.65;;;2.35;;
76606;SDS011;65498;50.916;4.698;2023-02-03T01:49:00;8.75;;;2.50;;
76606;SDS011;65498;50.916;4.698;2023-02-03T01:51:35;10.85;;;2.85;;
76606;SDS011;65498;50.916;4.698;2023-02-03T01:54:07;8.28;;;2.60;;
76606;SDS011;65498;50.916;4.698;2023-02-03T01:56:37;11.73;;;2.65;;
76606;SDS011;65498;50.916;4.698;2023-02-03T01:59:07;11.10;;;3.25;;
76606;SDS011;65498;50.916;4.698;2023-02-03T02:01:36;9.60;;;3.05;;
76606;SDS011;65498;50.916;4.698;2023-02-03T02:04:03;8.98;;;2.95;;
76606;SDS011;65498;50.916;4.698;2023-02-03T02:06:32;10.10;;;2.52;;
76606;SDS011;65498;50.916;4.698;2023-02-03T02:09:00;10.63;;;2.87;;
76606;SDS011;65498;50.916;4.698;2023-02-03T02:11:28;7.62;;;2.62;;
76606;SDS011;65498;50.916;4.698;2023-02-03T02:13:57;10.13;;;3.00;;
76606;SDS011;65498;50.916;4.698;2023-02-03T02:16:30;8.90;;;2.87;;
76606;SDS011;65498;50.916;4.698;2023-02-03T02:21:39;10.40;;;2.50;;
76606;SDS011;65498;50.916;4.698;2023-02-03T02:27:25;9.33;;;2.70;;
76606;SDS011;65498;50.916;4.698;2023-02-03T02:33:12;7.53;;;2.20;;
76606;SDS011;65498;50.916;4.698;2023-02-03T02:44:11;8.03;;;2.20;;
76606;SDS011;65498;50.916;4.698;2023-02-03T02:46:46;8.75;;;1.80;;
76606;SDS011;65498;50.916;4.698;2023-02-03T02:52:00;5.62;;;1.90;;
76606;SDS011;65498;50.916;4.698;2023-02-03T02:54:30;10.78;;;2.52;;
76606;SDS011;65498;50.916;4.698;2023-02-03T02:56:59;7.65;;;2.20;;
76606;SDS011;65498;50.916;4.698;2023-02-03T02:59:29;5.85;;;2.08;;
76606;SDS011;65498;50.916;4.698;2023-02-03T03:01:57;7.55;;;2.20;;
76606;SDS011;65498;50.916;4.698;2023-02-03T03:04:25;8.15;;;2.10;;
76606;SDS011;65498;50.916;4.698;2023-02-03T03:07:03;6.42;;;2.20;;
76606;SDS011;65498;50.916;4.698;2023-02-03T03:09:32;7.35;;;1.87;;
76606;SDS011;65498;50.916;4.698;2023-02-03T03:12:18;8.20;;;2.00;;
76606;SDS011;65498;50.916;4.698;2023-02-03T03:14:44;7.08;;;2.00;;
76606;SDS011;65498;50.916;4.698;2023-02-03T03:17:13;12.05;;;2.67;;
76606;SDS011;65498;50.916;4.698;2023-02-03T03:19:45;4.95;;;1.65;;
76606;SDS011;65498;50.916;4.698;2023-02-03T03:22:14;8.75;;;2.52;;
76606;SDS011;65498;50.916;4.698;2023-02-03T03:29:47;5.92;;;1.60;;
76606;SDS011;65498;50.916;4.698;2023-02-03T03:32:16;6.58;;;1.82;;
76606;SDS011;65498;50.916;4.698;2023-02-03T03:34:43;6.58;;;1.70;;
76606;SDS011;65498;50.916;4.698;2023-02-03T03:39:46;7.10;;;1.60;;
76606;SDS011;65498;50.916;4.698;2023-02-03T03:45:06;10.25;;;1.87;;
76606;SDS011;65498;50.916;4.698;2023-02-03T03:50:11;7.55;;;1.77;;
76606;SDS011;65498;50.916;4.698;2023-02-03T03:52:41;7.15;;;1.55;;
76606;SDS011;65498;50.916;4.698;2023-02-03T03:55:11;6.17;;;1.47;;
76606;SDS011;65498;50.916;4.698;2023-02-03T03:57:52;7.58;;;1.62;;
76606;SDS011;65498;50.916;4.698;2023-02-03T04:00:27;6.55;;;1.75;;
76606;SDS011;65498;50.916;4.698;2023-02-03T04:02:59;5.53;;;1.65;;
76606;SDS011;65498;50.916;4.698;2023-02-03T04:05:28;5.90;;;1.60;;
76606;SDS011;65498;50.916;4.698;2023-02-03T04:07:56;7.45;;;1.30;;
76606;SDS011;65498;50.916;4.698;2023-02-03T04:12:59;6.58;;;1.47;;
76606;SDS011;65498;50.916;4.698;2023-02-03T04:15:26;6.33;;;1.50;;
76606;SDS011;65498;50.916;4.698;2023-02-03T04:17:54;5.50;;;1.42;;
76606;SDS011;65498;50.916;4.698;2023-02-03T04:20:22;8.53;;;1.30;;
76606;SDS011;65498;50.916;4.698;2023-02-03T04:22:50;7.58;;;2.10;;
76606;SDS011;65498;50.916;4.698;2023-02-03T04:25:18;4.85;;;1.27;;
76606;SDS011;65498;50.916;4.698;2023-02-03T04:27:46;8.90;;;1.40;;
76606;SDS011;65498;50.916;4.698;2023-02-03T04:30:13;4.92;;;1.27;;
76606;SDS011;65498;50.916;4.698;2023-02-03T04:32:43;6.25;;;1.70;;
76606;SDS011;65498;50.916;4.698;2023-02-03T04:35:11;6.65;;;1.40;;
76606;SDS011;65498;50.916;4.698;2023-02-03T04:37:39;6.30;;;1.30;;
76606;SDS011;65498;50.916;4.698;2023-02-03T04:40:08;5.83;;;1.47;;
76606;SDS011;65498;50.916;4.698;2023-02-03T04:42:37;6.65;;;1.60;;
76606;SDS011;65498;50.916;4.698;2023-02-03T04:45:07;5.53;;;1.23;;
76606;SDS011;65498;50.916;4.698;2023-02-03T04:50:02;5.50;;;2.12;;
76606;SDS011;65498;50.916;4.698;2023-02-03T04:52:30;5.85;;;1.52;;
76606;SDS011;65498;50.916;4.698;2023-02-03T04:54:58;6.22;;;1.55;;
76606;SDS011;65498;50.916;4.698;2023-02-03T04:57:26;4.60;;;1.17;;
76606;SDS011;65498;50.916;4.698;2023-02-03T04:59:53;5.97;;;1.50;;
76606;SDS011;65498;50.916;4.698;2023-02-03T05:02:21;6.70;;;1.40;;
76606;SDS011;65498;50.916;4.698;2023-02-03T05:04:48;9.38;;;1.87;;
76606;SDS011;65498;50.916;4.698;2023-02-03T05:07:16;4.80;;;1.20;;
76606;SDS011;65498;50.916;4.698;2023-02-03T05:09:43;6.85;;;1.35;;
76606;SDS011;65498;50.916;4.698;2023-02-03T05:12:11;6.67;;;1.47;;
76606;SDS011;65498;50.916;4.698;2023-02-03T05:14:38;4.72;;;1.37;;
76606;SDS011;65498;50.916;4.698;2023-02-03T05:17:06;5.05;;;1.22;;
76606;SDS011;65498;50.916;4.698;2023-02-03T05:19:33;6.30;;;1.70;;
76606;SDS011;65498;50.916;4.698;2023-02-03T05:22:01;6.35;;;1.85;;
76606;SDS011;65498;50.916;4.698;2023-02-03T05:24:28;4.08;;;1.10;;
76606;SDS011;65498;50.916;4.698;2023-02-03T05:26:56;3.30;;;1.10;;
76606;SDS011;65498;50.916;4.698;2023-02-03T05:29:23;4.55;;;1.32;;
76606;SDS011;65498;50.916;4.698;2023-02-03T05:31:51;4.05;;;1.10;;
76606;SDS011;65498;50.916;4.698;2023-02-03T05:34:18;3.87;;;1.12;;
76606;SDS011;65498;50.916;4.698;2023-02-03T05:36:46;4.58;;;1.05;;
76606;SDS011;65498;50.916;4.698;2023-02-03T05:39:13;4.70;;;1.17;;
76606;SDS011;65498;50.916;4.698;2023-02-03T05:41:41;4.87;;;1.07;;
76606;SDS011;65498;50.916;4.698;2023-02-03T05:44:21;4.28;;;1.02;;
76606;SDS011;65498;50.916;4.698;2023-02-03T05:46:54;4.80;;;1.02;;
76606;SDS011;65498;50.916;4.698;2023-02-03T05:49:23;4.65;;;1.12;;
76606;SDS011;65498;50.916;4.698;2023-02-03T05:51:51;4.22;;;1.02;;
76606;SDS011;65498;50.916;4.698;2023-02-03T05:54:20;5.40;;;1.57;;
76606;SDS011;65498;50.916;4.698;2023-02-03T05:56:48;7.12;;;1.50;;
76606;SDS011;65498;50.916;4.698;2023-02-03T05:59:16;6.35;;;1.25;;
76606;SDS011;65498;50.916;4.698;2023-02-03T06:01:43;5.75;;;1.62;;
76606;SDS011;65498;50.916;4.698;2023-02-03T06:04:11;4.92;;;1.27;;
76606;SDS011;65498;50.916;4.698;2023-02-03T06:06:38;5.60;;;1.35;;
76606;SDS011;65498;50.916;4.698;2023-02-03T06:09:06;4.75;;;1.10;;
76606;SDS011;65498;50.916;4.698;2023-02-03T06:11:35;3.77;;;1.07;;
76606;SDS011;65498;50.916;4.698;2023-02-03T06:14:03;3.00;;;0.90;;
76606;SDS011;65498;50.916;4.698;2023-02-03T06:16:30;3.27;;;0.98;;
76606;SDS011;65498;50.916;4.698;2023-02-03T06:18:58;4.58;;;1.10;;
76606;SDS011;65498;50.916;4.698;2023-02-03T06:21:26;4.92;;;1.10;;
76606;SDS011;65498;50.916;4.698;2023-02-03T06:23:54;3.92;;;1.20;;
76606;SDS011;65498;50.916;4.698;2023-02-03T06:26:21;4.55;;;1.27;;
76606;SDS011;65498;50.916;4.698;2023-02-03T06:28:50;5.08;;;1.17;;
76606;SDS011;65498;50.916;4.698;2023-02-03T06:31:17;5.20;;;1.20;;
76606;SDS011;65498;50.916;4.698;2023-02-03T06:33:45;3.77;;;1.02;;
76606;SDS011;65498;50.916;4.698;2023-02-03T06:36:12;3.55;;;1.20;;
76606;SDS011;65498;50.916;4.698;2023-02-03T06:38:40;5.15;;;1.22;;
76606;SDS011;65498;50.916;4.698;2023-02-03T06:41:07;4.03;;;0.90;;
76606;SDS011;65498;50.916;4.698;2023-02-03T06:43:35;4.78;;;1.12;;
76606;SDS011;65498;50.916;4.698;2023-02-03T06:46:03;4.62;;;1.12;;
76606;SDS011;65498;50.916;4.698;2023-02-03T06:48:30;5.47;;;1.27;;
76606;SDS011;65498;50.916;4.698;2023-02-03T06:50:58;4.85;;;1.50;;
76606;SDS011;65498;50.916;4.698;2023-02-03T06:53:26;3.62;;;0.90;;
76606;SDS011;65498;50.916;4.698;2023-02-03T06:55:53;4.12;;;1.10;;
76606;SDS011;65498;50.916;4.698;2023-02-03T06:58:21;5.97;;;1.27;;
76606;SDS011;65498;50.916;4.698;2023-02-03T07:00:48;4.03;;;0.98;;
76606;SDS011;65498;50.916;4.698;2023-02-03T07:03:16;4.28;;;0.90;;
76606;SDS011;65498;50.916;4.698;2023-02-03T07:05:44;3.70;;;1.00;;
76606;SDS011;65498;50.916;4.698;2023-02-03T07:08:11;5.72;;;1.95;;
76606;SDS011;65498;50.916;4.698;2023-02-03T07:10:39;2.80;;;1.00;;
76606;SDS011;65498;50.916;4.698;2023-02-03T07:13:06;3.67;;;1.30;;
76606;SDS011;65498;50.916;4.698;2023-02-03T07:15:34;4.33;;;1.20;;
76606;SDS011;65498;50.916;4.698;2023-02-03T07:18:02;3.92;;;1.00;;
76606;SDS011;65498;50.916;4.698;2023-02-03T07:20:29;4.62;;;1.15;;
76606;SDS011;65498;50.916;4.698;2023-02-03T07:22:57;3.72;;;0.90;;
76606;SDS011;65498;50.916;4.698;2023-02-03T07:25:25;3.17;;;0.93;;
76606;SDS011;65498;50.916;4.698;2023-02-03T07:27:53;5.37;;;1.00;;
76606;SDS011;65498;50.916;4.698;2023-02-03T07:30:20;3.77;;;1.00;;
76606;SDS011;65498;50.916;4.698;2023-02-03T07:32:49;2.25;;;0.70;;
76606;SDS011;65498;50.916;4.698;2023-02-03T07:35:17;3.62;;;0.90;;
76606;SDS011;65498;50.916;4.698;2023-02-03T07:37:45;3.75;;;0.98;;
76606;SDS011;65498;50.916;4.698;2023-02-03T07:40:13;4.45;;;1.00;;
76606;SDS011;65498;50.916;4.698;2023-02-03T07:42:43;4.22;;;1.00;;
76606;SDS011;65498;50.916;4.698;2023-02-03T07:45:13;5.00;;;1.20;;
76606;SDS011;65498;50.916;4.698;2023-02-03T07:47:41;3.90;;;1.00;;
76606;SDS011;65498;50.916;4.698;2023-02-03T07:50:10;5.03;;;1.30;;
76606;SDS011;65498;50.916;4.698;2023-02-03T07:52:38;5.95;;;1.42;;
76606;SDS011;65498;50.916;4.698;2023-02-03T07:55:06;2.55;;;0.95;;
76606;SDS011;65498;50.916;4.698;2023-02-03T07:57:34;3.50;;;0.85;;
76606;SDS011;65498;50.916;4.698;2023-02-03T08:00:03;3.83;;;1.10;;
76606;SDS011;65498;50.916;4.698;2023-02-03T08:02:30;3.80;;;1.07;;
76606;SDS011;65498;50.916;4.698;2023-02-03T08:04:58;6.90;;;1.20;;
76606;SDS011;65498;50.916;4.698;2023-02-03T08:07:25;2.20;;;0.70;;
76606;SDS011;65498;50.916;4.698;2023-02-03T08:09:53;5.15;;;2.02;;
76606;SDS011;65498;50.916;4.698;2023-02-03T08:12:21;3.25;;;0.90;;
76606;SDS011;65498;50.916;4.698;2023-02-03T08:14:48;3.67;;;1.10;;
76606;SDS011;65498;50.916;4.698;2023-02-03T08:17:16;3.98;;;1.07;;
76606;SDS011;65498;50.916;4.698;2023-02-03T08:19:43;4.37;;;1.20;;
76606;SDS011;65498;50.916;4.698;2023-02-03T08:22:11;3.95;;;0.80;;
76606;SDS011;65498;50.916;4.698;2023-02-03T08:24:40;4.47;;;1.30;;
76606;SDS011;65498;50.916;4.698;2023-02-03T08:27:16;5.08;;;1.32;;
76606;SDS011;65498;50.916;4.698;2023-02-03T08:29:41;4.85;;;1.00;;
76606;SDS011;65498;50.916;4.698;2023-02-03T08:32:15;3.92;;;1.10;;
76606;SDS011;65498;50.916;4.698;2023-02-03T08:34:39;3.15;;;0.80;;
76606;SDS011;65498;50.916;4.698;2023-02-03T08:37:07;4.97;;;0.90;;
76606;SDS011;65498;50.916;4.698;2023-02-03T08:39:36;4.43;;;0.93;;
76606;SDS011;65498;50.916;4.698;2023-02-03T08:42:04;5.55;;;1.05;;
76606;SDS011;65498;50.916;4.698;2023-02-03T08:44:32;3.20;;;1.00;;
76606;SDS011;65498;50.916;4.698;2023-02-03T08:47:00;2.98;;;0.98;;
76606;SDS011;65498;50.916;4.698;2023-02-03T08:49:28;5.75;;;1.10;;
76606;SDS011;65498;50.916;4.698;2023-02-03T08:51:57;4.90;;;0.85;;
76606;SDS011;65498;50.916;4.698;2023-02-03T08:54:24;2.77;;;0.62;;
76606;SDS011;65498;50.916;4.698;2023-02-03T08:56:52;4.55;;;0.85;;
76606;SDS011;65498;50.916;4.698;2023-02-03T08:59:20;5.30;;;1.00;;
76606;SDS011;65498;50.916;4.698;2023-02-03T09:01:47;5.10;;;1.00;;
76606;SDS011;65498;50.916;4.698;2023-02-03T09:04:16;5.20;;;1.00;;
76606;SDS011;65498;50.916;4.698;2023-02-03T09:06:47;3.77;;;1.00;;
76606;SDS011;65498;50.916;4.698;2023-02-03T09:09:14;3.62;;;1.00;;
76606;SDS011;65498;50.916;4.698;2023-02-03T09:11:42;3.67;;;0.80;;
76606;SDS011;65498;50.916;4.698;2023-02-03T09:14:09;2.95;;;0.93;;
76606;SDS011;65498;50.916;4.698;2023-02-03T09:16:37;5.12;;;1.50;;
76606;SDS011;65498;50.916;4.698;2023-02-03T09:19:05;3.42;;;0.98;;
76606;SDS011;65498;50.916;4.698;2023-02-03T09:21:32;4.55;;;1.00;;
76606;SDS011;65498;50.916;4.698;2023-02-03T09:24:00;6.47;;;1.07;;
76606;SDS011;65498;50.916;4.698;2023-02-03T09:26:29;3.58;;;0.90;;
76606;SDS011;65498;50.916;4.698;2023-02-03T09:28:56;3.72;;;0.90;;
76606;SDS011;65498;50.916;4.698;2023-02-03T09:31:24;5.90;;;1.02;;
76606;SDS011;65498;50.916;4.698;2023-02-03T09:33:51;3.87;;;1.02;;
76606;SDS011;65498;50.916;4.698;2023-02-03T09:36:19;4.22;;;1.05;;
76606;SDS011;65498;50.916;4.698;2023-02-03T09:38:46;3.72;;;1.12;;
76606;SDS011;65498;50.916;4.698;2023-02-03T09:43:52;3.60;;;1.10;;
76606;SDS011;65498;50.916;4.698;2023-02-03T09:46:25;4.35;;;0.80;;
76606;SDS011;65498;50.916;4.698;2023-02-03T09:48:55;3.77;;;0.90;;
76606;SDS011;65498;50.916;4.698;2023-02-03T09:51:27;4.15;;;0.93;;
76606;SDS011;65498;50.916;4.698;2023-02-03T09:54:14;4.67;;;1.30;;
76606;SDS011;65498;50.916;4.698;2023-02-03T09:56:35;3.77;;;0.90;;
76606;SDS011;65498;50.916;4.698;2023-02-03T09:59:05;3.25;;;0.90;;
76606;SDS011;65498;50.916;4.698;2023-02-03T10:01:39;4.37;;;0.80;;
76606;SDS011;65498;50.916;4.698;2023-02-03T10:04:17;3.55;;;1.00;;
76606;SDS011;65498;50.916;4.698;2023-02-03T10:06:43;2.08;;;0.82;;
76606;SDS011;65498;50.916;4.698;2023-02-03T10:14:53;2.42;;;0.70;;
76606;SDS011;65498;50.916;4.698;2023-02-03T10:17:33;3.87;;;1.62;;
76606;SDS011;65498;50.916;4.698;2023-02-03T10:20:19;4.47;;;0.90;;
76606;SDS011;65498;50.916;4.698;2023-02-03T10:22:52;3.25;;;0.95;;
76606;SDS011;65498;50.916;4.698;2023-02-03T10:28:02;4.40;;;0.88;;
76606;SDS011;65498;50.916;4.698;2023-02-03T10:30:40;2.60;;;0.88;;
76606;SDS011;65498;50.916;4.698;2023-02-03T10:33:11;3.62;;;0.82;;
76606;SDS011;65498;50.916;4.698;2023-02-03T10:35:47;3.90;;;1.15;;
76606;SDS011;65498;50.916;4.698;2023-02-03T10:41:33;4.05;;;0.98;;
76606;SDS011;65498;50.916;4.698;2023-02-03T10:44:02;4.67;;;1.00;;
76606;SDS011;65498;50.916;4.698;2023-02-03T10:46:32;3.85;;;0.90;;
76606;SDS011;65498;50.916;4.698;2023-02-03T10:49:02;3.30;;;0.98;;
76606;SDS011;65498;50.916;4.698;2023-02-03T10:51:37;5.15;;;0.88;;
76606;SDS011;65498;50.916;4.698;2023-02-03T10:54:25;4.08;;;1.00;;
76606;SDS011;65498;50.916;4.698;2023-02-03T10:56:57;15.72;;;2.87;;
76606;SDS011;65498;50.916;4.698;2023-02-03T10:59:30;13.55;;;3.47;;
76606;SDS011;65498;50.916;4.698;2023-02-03T11:02:05;8.38;;;1.87;;
76606;SDS011;65498;50.916;4.698;2023-02-03T11:04:33;6.08;;;1.50;;
76606;SDS011;65498;50.916;4.698;2023-02-03T11:07:02;6.92;;;1.67;;
76606;SDS011;65498;50.916;4.698;2023-02-03T11:12:21;11.45;;;1.85;;
76606;SDS011;65498;50.916;4.698;2023-02-03T11:14:43;7.25;;;1.70;;
76606;SDS011;65498;50.916;4.698;2023-02-03T11:17:16;5.70;;;1.47;;
76606;SDS011;65498;50.916;4.698;2023-02-03T11:19:49;10.05;;;2.12;;
76606;SDS011;65498;50.916;4.698;2023-02-03T11:22:29;4.95;;;1.42;;
76606;SDS011;65498;50.916;4.698;2023-02-03T11:24:58;5.72;;;1.50;;
76606;SDS011;65498;50.916;4.698;2023-02-03T11:27:29;5.60;;;1.65;;
76606;SDS011;65498;50.916;4.698;2023-02-03T11:32:44;6.08;;;1.65;;
76606;SDS011;65498;50.916;4.698;2023-02-03T11:37:43;4.72;;;1.57;;
76606;SDS011;65498;50.916;4.698;2023-02-03T11:45:26;3.95;;;1.40;;
76606;SDS011;65498;50.916;4.698;2023-02-03T11:56:24;5.37;;;1.50;;
76606;SDS011;65498;50.916;4.698;2023-02-03T11:58:56;5.37;;;1.65;;
76606;SDS011;65498;50.916;4.698;2023-02-03T12:10:22;4.37;;;1.50;;
76606;SDS011;65498;50.916;4.698;2023-02-03T12:18:43;5.87;;;1.50;;
76606;SDS011;65498;50.916;4.698;2023-02-03T12:21:29;4.90;;;1.45;;
76606;SDS011;65498;50.916;4.698;2023-02-03T12:30:08;7.08;;;2.37;;
76606;SDS011;65498;50.916;4.698;2023-02-03T12:32:53;5.28;;;1.67;;
76606;SDS011;65498;50.916;4.698;2023-02-03T12:35:37;5.15;;;1.50;;
76606;SDS011;65498;50.916;4.698;2023-02-03T12:38:09;7.12;;;2.22;;
76606;SDS011;65498;50.916;4.698;2023-02-03T12:40:47;5.85;;;1.40;;
76606;SDS011;65498;50.916;4.698;2023-02-03T12:43:36;3.37;;;1.55;;
76606;SDS011;65498;50.916;4.698;2023-02-03T12:46:18;3.75;;;1.32;;
76606;SDS011;65498;50.916;4.698;2023-02-03T12:51:29;6.00;;;1.55;;
76606;SDS011;65498;50.916;4.698;2023-02-03T12:54:22;5.17;;;1.62;;
76606;SDS011;65498;50.916;4.698;2023-02-03T12:56:48;4.80;;;1.55;;
76606;SDS011;65498;50.916;4.698;2023-02-03T12:59:21;5.70;;;1.60;;
76606;SDS011;65498;50.916;4.698;2023-02-03T13:01:53;4.45;;;1.47;;
76606;SDS011;65498;50.916;4.698;2023-02-03T13:04:37;5.25;;;1.40;;
76606;SDS011;65498;50.916;4.698;2023-02-03T13:07:07;4.12;;;1.27;;
76606;SDS011;65498;50.916;4.698;2023-02-03T13:12:46;4.05;;;1.35;;
76606;SDS011;65498;50.916;4.698;2023-02-03T13:17:53;4.70;;;1.80;;
76606;SDS011;65498;50.916;4.698;2023-02-03T13:20:34;4.55;;;1.35;;
76606;SDS011;65498;50.916;4.698;2023-02-03T13:22:58;5.33;;;1.50;;
76606;SDS011;65498;50.916;4.698;2023-02-03T13:28:55;4.08;;;1.25;;
76606;SDS011;65498;50.916;4.698;2023-02-03T13:31:00;3.45;;;1.25;;
76606;SDS011;65498;50.916;4.698;2023-02-03T13:36:52;3.83;;;1.50;;
76606;SDS011;65498;50.916;4.698;2023-02-03T13:42:30;5.30;;;1.60;;
76606;SDS011;65498;50.916;4.698;2023-02-03T13:45:06;4.28;;;1.50;;
76606;SDS011;65498;50.916;4.698;2023-02-03T13:47:45;3.90;;;1.22;;
76606;SDS011;65498;50.916;4.698;2023-02-03T13:50:16;3.22;;;1.32;;
76606;SDS011;65498;50.916;4.698;2023-02-03T13:52:52;6.75;;;1.50;;
76606;SDS011;65498;50.916;4.698;2023-02-03T13:55:27;4.45;;;1.40;;
76606;SDS011;65498;50.916;4.698;2023-02-03T13:58:02;5.53;;;1.75;;
76606;SDS011;65498;50.916;4.698;2023-02-03T14:03:16;4.62;;;1.47;;
76606;SDS011;65498;50.916;4.698;2023-02-03T14:05:52;3.87;;;1.50;;
76606;SDS011;65498;50.916;4.698;2023-02-03T14:16:42;5.35;;;1.42;;
76606;SDS011;65498;50.916;4.698;2023-02-03T14:19:12;3.95;;;1.45;;
76606;SDS011;65498;50.916;4.698;2023-02-03T14:22:07;4.60;;;1.37;;
76606;SDS011;65498;50.916;4.698;2023-02-03T14:24:38;4.70;;;1.60;;
76606;SDS011;65498;50.916;4.698;2023-02-03T14:27:26;5.37;;;1.60;;
76606;SDS011;65498;50.916;4.698;2023-02-03T14:30:14;5.83;;;1.70;;
76606;SDS011;65498;50.916;4.698;2023-02-03T14:35:20;5.42;;;1.52;;
76606;SDS011;65498;50.916;4.698;2023-02-03T14:37:53;4.70;;;1.40;;
76606;SDS011;65498;50.916;4.698;2023-02-03T14:40:26;4.87;;;1.40;;
76606;SDS011;65498;50.916;4.698;2023-02-03T14:51:33;5.20;;;1.67;;
76606;SDS011;65498;50.916;4.698;2023-02-03T14:59:47;3.52;;;1.45;;
76606;SDS011;65498;50.916;4.698;2023-02-03T15:02:18;5.25;;;1.50;;
76606;SDS011;65498;50.916;4.698;2023-02-03T15:04:50;5.40;;;1.40;;
76606;SDS011;65498;50.916;4.698;2023-02-03T15:10:14;4.42;;;1.60;;
76606;SDS011;65498;50.916;4.698;2023-02-03T15:12:47;4.00;;;1.30;;
76606;SDS011;65498;50.916;4.698;2023-02-03T15:17:57;5.17;;;1.70;;
76606;SDS011;65498;50.916;4.698;2023-02-03T15:23:16;3.92;;;1.30;;
76606;SDS011;65498;50.916;4.698;2023-02-03T15:25:43;4.40;;;1.40;;
76606;SDS011;65498;50.916;4.698;2023-02-03T15:28:12;5.22;;;1.30;;
76606;SDS011;65498;50.916;4.698;2023-02-03T15:30:41;4.25;;;1.32;;
76606;SDS011;65498;50.916;4.698;2023-02-03T15:33:13;6.17;;;1.90;;
76606;SDS011;65498;50.916;4.698;2023-02-03T15:35:44;4.90;;;1.45;;
76606;SDS011;65498;50.916;4.698;2023-02-03T15:38:16;4.70;;;1.32;;
76606;SDS011;65498;50.916;4.698;2023-02-03T15:40:50;3.45;;;1.40;;
76606;SDS011;65498;50.916;4.698;2023-02-03T15:43:20;3.72;;;1.30;;
76606;SDS011;65498;50.916;4.698;2023-02-03T15:48:45;3.50;;;1.40;;
76606;SDS011;65498;50.916;4.698;2023-02-03T15:51:16;2.80;;;1.17;;
76606;SDS011;65498;50.916;4.698;2023-02-03T15:56:24;5.37;;;1.60;;
76606;SDS011;65498;50.916;4.698;2023-02-03T15:59:00;5.17;;;1.80;;
76606;SDS011;65498;50.916;4.698;2023-02-03T16:01:28;5.10;;;1.55;;
76606;SDS011;65498;50.916;4.698;2023-02-03T16:03:56;2.83;;;1.23;;
76606;SDS011;65498;50.916;4.698;2023-02-03T16:06:26;4.20;;;1.70;;
76606;SDS011;65498;50.916;4.698;2023-02-03T16:08:57;4.47;;;1.40;;
76606;SDS011;65498;50.916;4.698;2023-02-03T16:11:27;5.60;;;1.55;;
76606;SDS011;65498;50.916;4.698;2023-02-03T16:14:03;4.10;;;1.40;;
76606;SDS011;65498;50.916;4.698;2023-02-03T16:16:37;5.35;;;1.52;;
76606;SDS011;65498;50.916;4.698;2023-02-03T16:19:12;3.85;;;1.32;;
76606;SDS011;65498;50.916;4.698;2023-02-03T16:36:10;8.80;;;3.20;;
76606;SDS011;65498;50.916;4.698;2023-02-03T16:38:57;6.28;;;2.83;;
76606;SDS011;65498;50.916;4.698;2023-02-03T16:41:45;7.50;;;3.40;;
76606;SDS011;65498;50.916;4.698;2023-02-03T16:44:30;8.20;;;3.50;;
76606;SDS011;65498;50.916;4.698;2023-02-03T16:47:29;7.25;;;3.45;;
76606;SDS011;65498;50.916;4.698;2023-02-03T16:50:17;12.00;;;3.70;;
76606;SDS011;65498;50.916;4.698;2023-02-03T16:53:04;7.42;;;3.02;;
76606;SDS011;65498;50.916;4.698;2023-02-03T16:55:34;8.48;;;2.95;;
76606;SDS011;65498;50.916;4.698;2023-02-03T16:58:01;8.43;;;3.22;;
76606;SDS011;65498;50.916;4.698;2023-02-03T17:00:29;6.62;;;3.02;;
76606;SDS011;65498;50.916;4.698;2023-02-03T17:02:56;7.05;;;3.00;;
76606;SDS011;65498;50.916;4.698;2023-02-03T17:05:24;7.20;;;3.30;;
76606;SDS011;65498;50.916;4.698;2023-02-03T17:07:51;6.50;;;2.72;;
76606;SDS011;65498;50.916;4.698;2023-02-03T17:10:19;7.25;;;3.12;;
76606;SDS011;65498;50.916;4.698;2023-02-03T17:12:47;8.13;;;3.20;;
76606;SDS011;65498;50.916;4.698;2023-02-03T17:15:16;6.15;;;2.62;;
76606;SDS011;65498;50.916;4.698;2023-02-03T17:17:43;6.53;;;3.00;;
76606;SDS011;65498;50.916;4.698;2023-02-03T17:20:11;7.47;;;2.92;;
76606;SDS011;65498;50.916;4.698;2023-02-03T17:22:38;7.15;;;2.72;;
76606;SDS011;65498;50.916;4.698;2023-02-03T17:25:06;6.50;;;2.83;;
76606;SDS011;65498;50.916;4.698;2023-02-03T17:27:34;6.03;;;2.37;;
76606;SDS011;65498;50.916;4.698;2023-02-03T17:30:01;6.50;;;2.83;;
76606;SDS011;65498;50.916;4.698;2023-02-03T17:32:30;5.58;;;2.70;;
76606;SDS011;65498;50.916;4.698;2023-02-03T17:34:57;7.10;;;2.67;;
76606;SDS011;65498;50.916;4.698;2023-02-03T17:37:25;6.05;;;2.90;;
76606;SDS011;65498;50.916;4.698;2023-02-03T17:39:52;5.95;;;2.80;;
76606;SDS011;65498;50.916;4.698;2023-02-03T17:42:20;6.42;;;2.83;;
76606;SDS011;65498;50.916;4.698;2023-02-03T17:44:48;6.42;;;2.50;;
76606;SDS011;65498;50.916;4.698;2023-02-03T17:47:15;6.97;;;2.67;;
76606;SDS011;65498;50.916;4.698;2023-02-03T17:49:43;7.20;;;2.70;;
76606;SDS011;65498;50.916;4.698;2023-02-03T17:52:14;7.00;;;3.02;;
76606;SDS011;65498;50.916;4.698;2023-02-03T17:54:42;7.35;;;2.85;;
76606;SDS011;65498;50.916;4.698;2023-02-03T17:57:09;8.38;;;2.95;;